sensor_id;sensor_type;location;lat;lon;timestamp;temperature;humidity
21033;DHT22;10675;47.976;7.824;2023-03-24T00:02:05;16.90;69.20
21033;DHT22;10675;47.976;7.824;2023-03-24T00:04:32;16.70;69.80
21033;DHT22;10675;47.976;7.824;2023-03-24T00:06:57;16.80;68.90
21033;DHT22;10675;47.976;7.824;2023-03-24T00:09:26;16.90;68.60
21033;DHT22;10675;47.976;7.824;2023-03-24T00:11:55;17.00;68.00
21033;DHT22;10675;47.976;7.824;2023-03-24T00:14:20;17.00;68.00
21033;DHT22;10675;47.976;7.824;2023-03-24T00:16:48;17.10;67.40
21033;DHT22;10675;47.976;7.824;2023-03-24T00:19:15;17.00;67.70
21033;DHT22;10675;47.976;7.824;2023-03-24T00:21:41;17.10;67.10
21033;DHT22;10675;47.976;7.824;2023-03-24T00:24:08;17.10;67.20
21033;DHT22;10675;47.976;7.824;2023-03-24T00:26:35;17.00;67.40
21033;DHT22;10675;47.976;7.824;2023-03-24T00:29:05;17.00;67.30
21033;DHT22;10675;47.976;7.824;2023-03-24T00:31:32;17.20;65.80
21033;DHT22;10675;47.976;7.824;2023-03-24T00:33:57;17.30;65.90
21033;DHT22;10675;47.976;7.824;2023-03-24T00:36:25;17.60;64.20
21033;DHT22;10675;47.976;7.824;2023-03-24T00:38:51;17.80;63.20
21033;DHT22;10675;47.976;7.824;2023-03-24T00:41:17;18.00;62.30
21033;DHT22;10675;47.976;7.824;2023-03-24T00:43:46;17.80;63.50
21033;DHT22;10675;47.976;7.824;2023-03-24T00:46:13;17.50;65.10
21033;DHT22;10675;47.976;7.824;2023-03-24T00:51:27;16.80;69.00
21033;DHT22;10675;47.976;7.824;2023-03-24T00:53:52;16.60;70.30
21033;DHT22;10675;47.976;7.824;2023-03-24T00:56:24;16.30;71.60
21033;DHT22;10675;47.976;7.824;2023-03-24T00:58:51;16.10;72.70
21033;DHT22;10675;47.976;7.824;2023-03-24T01:01:16;16.00;73.90
21033;DHT22;10675;47.976;7.824;2023-03-24T01:03:42;15.90;74.70
21033;DHT22;10675;47.976;7.824;2023-03-24T01:06:12;15.70;75.50
21033;DHT22;10675;47.976;7.824;2023-03-24T01:08:38;15.50;76.20
21033;DHT22;10675;47.976;7.824;2023-03-24T01:11:05;15.50;77.00
21033;DHT22;10675;47.976;7.824;2023-03-24T01:13:31;15.40;77.30
21033;DHT22;10675;47.976;7.824;2023-03-24T01:15:58;15.40;77.80
21033;DHT22;10675;47.976;7.824;2023-03-24T01:18:24;15.30;78.20
21033;DHT22;10675;47.976;7.824;2023-03-24T01:20:50;15.20;79.40
21033;DHT22;10675;47.976;7.824;2023-03-24T01:23:22;15.10;79.60
21033;DHT22;10675;47.976;7.824;2023-03-24T01:25:49;15.00;79.90
21033;DHT22;10675;47.976;7.824;2023-03-24T01:28:18;15.00;80.10
21033;DHT22;10675;47.976;7.824;2023-03-24T01:30:46;14.90;80.50
21033;DHT22;10675;47.976;7.824;2023-03-24T01:33:11;14.90;80.70
21033;DHT22;10675;47.976;7.824;2023-03-24T01:35:37;14.90;81.30
21033;DHT22;10675;47.976;7.824;2023-03-24T01:38:07;14.80;81.80
21033;DHT22;10675;47.976;7.824;2023-03-24T01:40:35;14.80;81.90
21033;DHT22;10675;47.976;7.824;2023-03-24T01:43:02;14.80;82.40
21033;DHT22;10675;47.976;7.824;2023-03-24T01:48:40;14.60;83.10
21033;DHT22;10675;47.976;7.824;2023-03-24T01:51:11;14.60;82.60
21033;DHT22;10675;47.976;7.824;2023-03-24T01:53:44;14.80;81.50
21033;DHT22;10675;47.976;7.824;2023-03-24T01:56:11;14.90;80.30
21033;DHT22;10675;47.976;7.824;2023-03-24T01:58:40;16.10;72.20
21033;DHT22;10675;47.976;7.824;2023-03-24T02:01:07;16.90;68.00
21033;DHT22;10675;47.976;7.824;2023-03-24T02:03:33;17.50;65.60
21033;DHT22;10675;47.976;7.824;2023-03-24T02:06:03;17.80;63.80
21033;DHT22;10675;47.976;7.824;2023-03-24T02:08:46;18.00;63.10
21033;DHT22;10675;47.976;7.824;2023-03-24T02:11:13;18.00;62.90
21033;DHT22;10675;47.976;7.824;2023-03-24T02:13:38;18.00;63.00
21033;DHT22;10675;47.976;7.824;2023-03-24T02:18:52;18.00;63.40
21033;DHT22;10675;47.976;7.824;2023-03-24T02:21:40;18.00;62.80
21033;DHT22;10675;47.976;7.824;2023-03-24T02:30:16;18.50;61.20
21033;DHT22;10675;47.976;7.824;2023-03-24T02:37:48;18.60;61.10
21033;DHT22;10675;47.976;7.824;2023-03-24T02:43:00;18.60;61.10
21033;DHT22;10675;47.976;7.824;2023-03-24T02:48:10;18.60;61.10
21033;DHT22;10675;47.976;7.824;2023-03-24T02:53:39;18.60;63.70
21033;DHT22;10675;47.976;7.824;2023-03-24T02:56:14;18.50;63.90
21033;DHT22;10675;47.976;7.824;2023-03-24T02:58:44;18.60;64.00
21033;DHT22;10675;47.976;7.824;2023-03-24T03:01:37;18.40;65.20
21033;DHT22;10675;47.976;7.824;2023-03-24T03:04:15;18.40;65.30
21033;DHT22;10675;47.976;7.824;2023-03-24T03:06:45;18.40;65.20
21033;DHT22;10675;47.976;7.824;2023-03-24T03:09:15;18.40;65.50
21033;DHT22;10675;47.976;7.824;2023-03-24T03:11:45;18.20;65.80
21033;DHT22;10675;47.976;7.824;2023-03-24T03:14:22;18.20;65.50
21033;DHT22;10675;47.976;7.824;2023-03-24T03:17:21;18.30;65.50
21033;DHT22;10675;47.976;7.824;2023-03-24T03:20:02;18.30;65.70
21033;DHT22;10675;47.976;7.824;2023-03-24T03:22:37;18.20;65.70
21033;DHT22;10675;47.976;7.824;2023-03-24T03:25:04;18.30;65.70
21033;DHT22;10675;47.976;7.824;2023-03-24T03:27:32;18.10;66.70
21033;DHT22;10675;47.976;7.824;2023-03-24T03:30:07;18.00;67.20
21033;DHT22;10675;47.976;7.824;2023-03-24T03:32:38;17.90;67.80
21033;DHT22;10675;47.976;7.824;2023-03-24T03:35:25;17.80;68.50
21033;DHT22;10675;47.976;7.824;2023-03-24T03:43:13;17.70;69.50
21033;DHT22;10675;47.976;7.824;2023-03-24T03:45:38;17.60;70.10
21033;DHT22;10675;47.976;7.824;2023-03-24T03:48:04;17.50;70.00
21033;DHT22;10675;47.976;7.824;2023-03-24T03:50:30;17.70;68.70
21033;DHT22;10675;47.976;7.824;2023-03-24T03:52:56;17.70;67.80
21033;DHT22;10675;47.976;7.824;2023-03-24T03:55:22;17.70;69.60
21033;DHT22;10675;47.976;7.824;2023-03-24T03:57:47;17.30;72.20
21033;DHT22;10675;47.976;7.824;2023-03-24T04:00:16;16.90;74.00
21033;DHT22;10675;47.976;7.824;2023-03-24T04:02:51;16.90;73.80
21033;DHT22;10675;47.976;7.824;2023-03-24T04:08:32;16.70;75.50
21033;DHT22;10675;47.976;7.824;2023-03-24T04:14:20;16.40;79.00
21033;DHT22;10675;47.976;7.824;2023-03-24T04:22:39;15.60;88.40
21033;DHT22;10675;47.976;7.824;2023-03-24T04:25:19;15.30;90.50
21033;DHT22;10675;47.976;7.824;2023-03-24T04:30:41;14.90;92.90
21033;DHT22;10675;47.976;7.824;2023-03-24T04:33:18;14.80;93.70
21033;DHT22;10675;47.976;7.824;2023-03-24T04:35:54;14.80;94.20
21033;DHT22;10675;47.976;7.824;2023-03-24T04:38:24;14.80;94.90
21033;DHT22;10675;47.976;7.824;2023-03-24T04:40:53;14.70;95.50
21033;DHT22;10675;47.976;7.824;2023-03-24T04:43:22;14.60;96.10
21033;DHT22;10675;47.976;7.824;2023-03-24T04:45:51;14.60;97.10
21033;DHT22;10675;47.976;7.824;2023-03-24T04:48:23;14.40;99.60
21033;DHT22;10675;47.976;7.824;2023-03-24T04:50:54;14.30;99.90
21033;DHT22;10675;47.976;7.824;2023-03-24T04:53:20;14.30;99.90
21033;DHT22;10675;47.976;7.824;2023-03-24T04:58:19;14.20;99.90
21033;DHT22;10675;47.976;7.824;2023-03-24T05:00:46;14.20;99.90
21033;DHT22;10675;47.976;7.824;2023-03-24T05:03:13;14.20;99.90
21033;DHT22;10675;47.976;7.824;2023-03-24T05:05:46;14.20;99.90
21033;DHT22;10675;47.976;7.824;2023-03-24T05:08:13;14.20;99.90
21033;DHT22;10675;47.976;7.824;2023-03-24T05:10:39;14.20;99.90
21033;DHT22;10675;47.976;7.824;2023-03-24T05:13:06;14.20;99.90
21033;DHT22;10675;47.976;7.824;2023-03-24T05:15:32;14.20;99.90
21033;DHT22;10675;47.976;7.824;2023-03-24T05:17:58;14.20;99.90
21033;DHT22;10675;47.976;7.824;2023-03-24T05:20:24;14.20;99.90
21033;DHT22;10675;47.976;7.824;2023-03-24T05:22:50;14.20;99.90
21033;DHT22;10675;47.976;7.824;2023-03-24T05:25:16;14.10;99.90
21033;DHT22;10675;47.976;7.824;2023-03-24T05:27:42;14.20;99.90
21033;DHT22;10675;47.976;7.824;2023-03-24T05:30:08;14.20;99.90
21033;DHT22;10675;47.976;7.824;2023-03-24T05:32:34;14.20;99.90
21033;DHT22;10675;47.976;7.824;2023-03-24T05:34:59;14.20;99.90
21033;DHT22;10675;47.976;7.824;2023-03-24T05:37:25;14.20;99.90
21033;DHT22;10675;47.976;7.824;2023-03-24T05:39:52;14.10;99.90
21033;DHT22;10675;47.976;7.824;2023-03-24T05:42:18;14.10;99.90
21033;DHT22;10675;47.976;7.824;2023-03-24T05:44:44;14.10;99.90
21033;DHT22;10675;47.976;7.824;2023-03-24T05:47:10;14.10;99.90
21033;DHT22;10675;47.976;7.824;2023-03-24T05:49:37;14.10;99.90
21033;DHT22;10675;47.976;7.824;2023-03-24T05:52:02;14.10;99.90
21033;DHT22;10675;47.976;7.824;2023-03-24T05:54:28;14.10;99.90
21033;DHT22;10675;47.976;7.824;2023-03-24T05:56:54;14.00;99.90
21033;DHT22;10675;47.976;7.824;2023-03-24T05:59:19;14.00;99.90
21033;DHT22;10675;47.976;7.824;2023-03-24T06:01:45;13.90;99.90
21033;DHT22;10675;47.976;7.824;2023-03-24T06:04:12;13.90;99.90
21033;DHT22;10675;47.976;7.824;2023-03-24T06:06:38;13.80;99.90
21033;DHT22;10675;47.976;7.824;2023-03-24T06:09:05;13.80;99.90
21033;DHT22;10675;47.976;7.824;2023-03-24T06:11:31;13.70;99.90
21033;DHT22;10675;47.976;7.824;2023-03-24T06:13:56;13.70;99.90
21033;DHT22;10675;47.976;7.824;2023-03-24T06:16:28;13.70;99.90
21033;DHT22;10675;47.976;7.824;2023-03-24T06:18:54;13.60;99.90
21033;DHT22;10675;47.976;7.824;2023-03-24T06:21:20;13.50;99.90
21033;DHT22;10675;47.976;7.824;2023-03-24T06:23:46;13.50;99.90
21033;DHT22;10675;47.976;7.824;2023-03-24T06:26:12;13.50;99.90
21033;DHT22;10675;47.976;7.824;2023-03-24T06:28:39;13.40;99.90
21033;DHT22;10675;47.976;7.824;2023-03-24T06:31:07;13.30;99.90
21033;DHT22;10675;47.976;7.824;2023-03-24T06:33:43;13.30;99.90
21033;DHT22;10675;47.976;7.824;2023-03-24T06:36:10;13.20;99.90
21033;DHT22;10675;47.976;7.824;2023-03-24T06:38:37;13.20;99.90
21033;DHT22;10675;47.976;7.824;2023-03-24T06:41:03;13.20;99.90
21033;DHT22;10675;47.976;7.824;2023-03-24T06:43:29;13.20;99.90
21033;DHT22;10675;47.976;7.824;2023-03-24T06:45:55;13.10;99.90
21033;DHT22;10675;47.976;7.824;2023-03-24T06:48:21;13.10;99.90
21033;DHT22;10675;47.976;7.824;2023-03-24T06:50:47;13.00;99.90
21033;DHT22;10675;47.976;7.824;2023-03-24T06:53:12;13.00;99.90
21033;DHT22;10675;47.976;7.824;2023-03-24T06:55:38;13.00;99.90
21033;DHT22;10675;47.976;7.824;2023-03-24T06:58:03;13.00;99.90
21033;DHT22;10675;47.976;7.824;2023-03-24T07:00:29;13.20;99.90
21033;DHT22;10675;47.976;7.824;2023-03-24T07:02:55;13.50;99.90
21033;DHT22;10675;47.976;7.824;2023-03-24T07:05:21;13.60;99.90
21033;DHT22;10675;47.976;7.824;2023-03-24T07:07:47;13.70;99.90
21033;DHT22;10675;47.976;7.824;2023-03-24T07:10:14;13.70;99.90
21033;DHT22;10675;47.976;7.824;2023-03-24T07:12:40;13.80;99.90
21033;DHT22;10675;47.976;7.824;2023-03-24T07:15:06;13.80;99.90
21033;DHT22;10675;47.976;7.824;2023-03-24T07:17:32;13.70;99.90
21033;DHT22;10675;47.976;7.824;2023-03-24T07:19:58;13.50;99.90
21033;DHT22;10675;47.976;7.824;2023-03-24T07:22:24;13.40;99.90
21033;DHT22;10675;47.976;7.824;2023-03-24T07:24:49;13.40;99.90
21033;DHT22;10675;47.976;7.824;2023-03-24T07:27:15;13.40;99.90
21033;DHT22;10675;47.976;7.824;2023-03-24T07:29:40;13.40;99.90
21033;DHT22;10675;47.976;7.824;2023-03-24T07:32:06;13.40;99.90
21033;DHT22;10675;47.976;7.824;2023-03-24T07:34:33;13.40;99.90
21033;DHT22;10675;47.976;7.824;2023-03-24T07:36:58;13.40;99.90
21033;DHT22;10675;47.976;7.824;2023-03-24T07:39:24;13.40;99.90
21033;DHT22;10675;47.976;7.824;2023-03-24T07:41:50;13.40;99.90
21033;DHT22;10675;47.976;7.824;2023-03-24T07:44:16;13.50;99.90
21033;DHT22;10675;47.976;7.824;2023-03-24T07:46:41;13.50;99.90
21033;DHT22;10675;47.976;7.824;2023-03-24T07:49:07;13.50;99.90
21033;DHT22;10675;47.976;7.824;2023-03-24T07:51:33;13.50;99.90
21033;DHT22;10675;47.976;7.824;2023-03-24T07:53:58;13.40;99.90
21033;DHT22;10675;47.976;7.824;2023-03-24T07:56:25;13.30;99.90
21033;DHT22;10675;47.976;7.824;2023-03-24T07:58:51;13.30;99.90
21033;DHT22;10675;47.976;7.824;2023-03-24T08:01:17;13.30;99.90
21033;DHT22;10675;47.976;7.824;2023-03-24T08:03:42;13.20;99.90
21033;DHT22;10675;47.976;7.824;2023-03-24T08:06:08;13.20;99.90
21033;DHT22;10675;47.976;7.824;2023-03-24T08:08:34;13.20;99.90
21033;DHT22;10675;47.976;7.824;2023-03-24T08:11:01;13.20;99.90
21033;DHT22;10675;47.976;7.824;2023-03-24T08:13:26;13.20;99.90
21033;DHT22;10675;47.976;7.824;2023-03-24T08:15:52;13.20;99.90
21033;DHT22;10675;47.976;7.824;2023-03-24T08:18:19;13.30;99.90
21033;DHT22;10675;47.976;7.824;2023-03-24T08:20:46;13.40;99.90
21033;DHT22;10675;47.976;7.824;2023-03-24T08:23:11;13.50;99.90
21033;DHT22;10675;47.976;7.824;2023-03-24T08:25:37;13.50;99.90
21033;DHT22;10675;47.976;7.824;2023-03-24T08:28:03;13.60;99.90
21033;DHT22;10675;47.976;7.824;2023-03-24T08:30:29;13.60;99.90
21033;DHT22;10675;47.976;7.824;2023-03-24T08:32:58;13.50;99.90
21033;DHT22;10675;47.976;7.824;2023-03-24T08:35:26;13.60;99.90
21033;DHT22;10675;47.976;7.824;2023-03-24T08:37:52;13.70;99.90
21033;DHT22;10675;47.976;7.824;2023-03-24T08:40:21;13.80;99.90
21033;DHT22;10675;47.976;7.824;2023-03-24T08:42:53;13.90;99.90
21033;DHT22;10675;47.976;7.824;2023-03-24T08:45:21;14.00;99.90
21033;DHT22;10675;47.976;7.824;2023-03-24T08:47:49;14.10;99.90
21033;DHT22;10675;47.976;7.824;2023-03-24T08:50:18;14.10;99.90
21033;DHT22;10675;47.976;7.824;2023-03-24T08:52:44;14.20;99.90
21033;DHT22;10675;47.976;7.824;2023-03-24T08:55:16;14.10;99.90
21033;DHT22;10675;47.976;7.824;2023-03-24T08:57:42;14.10;99.90
21033;DHT22;10675;47.976;7.824;2023-03-24T09:00:08;14.20;99.90
21033;DHT22;10675;47.976;7.824;2023-03-24T09:02:38;14.20;99.90
21033;DHT22;10675;47.976;7.824;2023-03-24T09:05:05;14.20;99.90
21033;DHT22;10675;47.976;7.824;2023-03-24T09:07:30;14.20;99.90
21033;DHT22;10675;47.976;7.824;2023-03-24T09:09:56;14.20;99.90
21033;DHT22;10675;47.976;7.824;2023-03-24T09:12:21;14.30;99.90
21033;DHT22;10675;47.976;7.824;2023-03-24T09:14:48;14.30;99.90
21033;DHT22;10675;47.976;7.824;2023-03-24T09:17:14;14.30;99.90
21033;DHT22;10675;47.976;7.824;2023-03-24T09:19:40;14.40;99.90
21033;DHT22;10675;47.976;7.824;2023-03-24T09:22:05;14.50;99.90
21033;DHT22;10675;47.976;7.824;2023-03-24T09:24:31;14.50;99.90
21033;DHT22;10675;47.976;7.824;2023-03-24T09:26:57;14.60;99.90
21033;DHT22;10675;47.976;7.824;2023-03-24T09:29:22;14.60;99.90
21033;DHT22;10675;47.976;7.824;2023-03-24T09:31:48;14.60;99.90
21033;DHT22;10675;47.976;7.824;2023-03-24T09:34:13;14.60;99.90
21033;DHT22;10675;47.976;7.824;2023-03-24T09:36:39;14.60;99.90
21033;DHT22;10675;47.976;7.824;2023-03-24T09:39:04;14.70;99.90
21033;DHT22;10675;47.976;7.824;2023-03-24T09:41:30;14.60;99.90
21033;DHT22;10675;47.976;7.824;2023-03-24T09:44:02;14.60;99.90
21033;DHT22;10675;47.976;7.824;2023-03-24T09:46:40;14.60;99.90
21033;DHT22;10675;47.976;7.824;2023-03-24T09:49:21;14.70;99.90
21033;DHT22;10675;47.976;7.824;2023-03-24T09:51:49;14.60;99.90
21033;DHT22;10675;47.976;7.824;2023-03-24T09:57:03;14.60;99.90
21033;DHT22;10675;47.976;7.824;2023-03-24T09:59:37;14.60;99.90
21033;DHT22;10675;47.976;7.824;2023-03-24T10:02:11;14.60;99.90
21033;DHT22;10675;47.976;7.824;2023-03-24T10:04:38;14.50;99.90
21033;DHT22;10675;47.976;7.824;2023-03-24T10:07:21;14.40;99.90
21033;DHT22;10675;47.976;7.824;2023-03-24T10:09:53;14.40;99.90
21033;DHT22;10675;47.976;7.824;2023-03-24T10:12:29;14.30;99.90
21033;DHT22;10675;47.976;7.824;2023-03-24T10:20:40;14.00;99.90
21033;DHT22;10675;47.976;7.824;2023-03-24T10:23:21;13.90;99.90
21033;DHT22;10675;47.976;7.824;2023-03-24T10:25:53;13.70;99.90
21033;DHT22;10675;47.976;7.824;2023-03-24T10:28:45;13.60;99.90
21033;DHT22;10675;47.976;7.824;2023-03-24T10:31:26;13.60;99.90
21033;DHT22;10675;47.976;7.824;2023-03-24T10:33:53;13.60;99.90
21033;DHT22;10675;47.976;7.824;2023-03-24T10:36:20;13.60;99.90
21033;DHT22;10675;47.976;7.824;2023-03-24T10:38:47;13.50;99.90
21033;DHT22;10675;47.976;7.824;2023-03-24T10:41:18;13.50;99.90
21033;DHT22;10675;47.976;7.824;2023-03-24T10:43:44;13.60;99.90
21033;DHT22;10675;47.976;7.824;2023-03-24T10:46:13;13.50;99.90
21033;DHT22;10675;47.976;7.824;2023-03-24T10:48:44;13.60;99.90
21033;DHT22;10675;47.976;7.824;2023-03-24T10:51:29;13.40;99.90
21033;DHT22;10675;47.976;7.824;2023-03-24T10:54:10;13.40;99.90
21033;DHT22;10675;47.976;7.824;2023-03-24T10:56:39;13.40;99.90
21033;DHT22;10675;47.976;7.824;2023-03-24T11:01:42;13.30;99.90
21033;DHT22;10675;47.976;7.824;2023-03-24T11:04:12;13.30;99.90
21033;DHT22;10675;47.976;7.824;2023-03-24T11:06:53;13.40;99.90
21033;DHT22;10675;47.976;7.824;2023-03-24T11:09:20;13.40;99.90
21033;DHT22;10675;47.976;7.824;2023-03-24T11:11:46;13.50;99.90
21033;DHT22;10675;47.976;7.824;2023-03-24T11:14:26;13.50;99.90
21033;DHT22;10675;47.976;7.824;2023-03-24T11:17:00;13.50;99.90
21033;DHT22;10675;47.976;7.824;2023-03-24T11:19:26;13.60;99.90
21033;DHT22;10675;47.976;7.824;2023-03-24T11:21:56;13.60;99.90
21033;DHT22;10675;47.976;7.824;2023-03-24T11:24:24;13.50;99.90
21033;DHT22;10675;47.976;7.824;2023-03-24T11:26:59;13.50;99.90
21033;DHT22;10675;47.976;7.824;2023-03-24T11:29:28;13.60;99.90
21033;DHT22;10675;47.976;7.824;2023-03-24T11:32:02;13.80;99.90
21033;DHT22;10675;47.976;7.824;2023-03-24T11:34:34;13.90;99.90
21033;DHT22;10675;47.976;7.824;2023-03-24T11:37:18;13.90;99.90
21033;DHT22;10675;47.976;7.824;2023-03-24T11:42:48;13.80;99.90
21033;DHT22;10675;47.976;7.824;2023-03-24T11:47:56;13.70;99.90
21033;DHT22;10675;47.976;7.824;2023-03-24T11:50:33;13.70;99.90
21033;DHT22;10675;47.976;7.824;2023-03-24T11:53:23;13.70;99.90
21033;DHT22;10675;47.976;7.824;2023-03-24T11:56:17;13.80;99.90
21033;DHT22;10675;47.976;7.824;2023-03-24T11:59:11;13.80;99.90
21033;DHT22;10675;47.976;7.824;2023-03-24T12:01:47;13.80;99.90
21033;DHT22;10675;47.976;7.824;2023-03-24T12:04:21;13.80;99.90
21033;DHT22;10675;47.976;7.824;2023-03-24T12:10:14;13.80;99.90
21033;DHT22;10675;47.976;7.824;2023-03-24T12:12:56;13.90;99.90
21033;DHT22;10675;47.976;7.824;2023-03-24T12:21:07;14.10;99.90
21033;DHT22;10675;47.976;7.824;2023-03-24T12:26:24;14.10;99.90
21033;DHT22;10675;47.976;7.824;2023-03-24T12:31:31;14.00;99.90
21033;DHT22;10675;47.976;7.824;2023-03-24T12:37:32;14.00;99.90
21033;DHT22;10675;47.976;7.824;2023-03-24T12:43:10;13.90;99.90
21033;DHT22;10675;47.976;7.824;2023-03-24T12:45:43;13.80;99.90
21033;DHT22;10675;47.976;7.824;2023-03-24T12:48:14;13.80;99.90
21033;DHT22;10675;47.976;7.824;2023-03-24T12:50:57;13.70;99.90
21033;DHT22;10675;47.976;7.824;2023-03-24T12:53:54;13.60;99.90
21033;DHT22;10675;47.976;7.824;2023-03-24T12:56:40;13.60;99.90
21033;DHT22;10675;47.976;7.824;2023-03-24T12:59:19;13.50;99.90
21033;DHT22;10675;47.976;7.824;2023-03-24T13:02:08;13.60;99.90
21033;DHT22;10675;47.976;7.824;2023-03-24T13:04:39;13.50;99.90
21033;DHT22;10675;47.976;7.824;2023-03-24T13:07:10;13.40;99.90
21033;DHT22;10675;47.976;7.824;2023-03-24T13:12:39;13.50;99.90
21033;DHT22;10675;47.976;7.824;2023-03-24T13:17:47;13.40;99.90
21033;DHT22;10675;47.976;7.824;2023-03-24T13:20:21;13.40;99.90
21033;DHT22;10675;47.976;7.824;2023-03-24T13:22:49;13.30;99.90
21033;DHT22;10675;47.976;7.824;2023-03-24T13:25:52;13.30;99.90
21033;DHT22;10675;47.976;7.824;2023-03-24T13:28:29;13.40;99.90
21033;DHT22;10675;47.976;7.824;2023-03-24T13:30:56;13.40;99.90
21033;DHT22;10675;47.976;7.824;2023-03-24T13:33:27;13.40;99.90
21033;DHT22;10675;47.976;7.824;2023-03-24T13:38:48;13.40;99.90
21033;DHT22;10675;47.976;7.824;2023-03-24T13:41:21;13.30;99.90
21033;DHT22;10675;47.976;7.824;2023-03-24T13:44:02;13.30;99.90
21033;DHT22;10675;47.976;7.824;2023-03-24T13:46:28;13.30;99.90
21033;DHT22;10675;47.976;7.824;2023-03-24T13:48:56;13.10;99.90
21033;DHT22;10675;47.976;7.824;2023-03-24T13:51:29;13.10;99.90
21033;DHT22;10675;47.976;7.824;2023-03-24T13:53:56;13.00;99.90
21033;DHT22;10675;47.976;7.824;2023-03-24T13:56:35;12.90;99.90
21033;DHT22;10675;47.976;7.824;2023-03-24T14:04:27;12.60;99.90
21033;DHT22;10675;47.976;7.824;2023-03-24T14:06:57;12.50;99.90
21033;DHT22;10675;47.976;7.824;2023-03-24T14:09:28;12.40;99.90
21033;DHT22;10675;47.976;7.824;2023-03-24T14:12:16;12.40;99.90
21033;DHT22;10675;47.976;7.824;2023-03-24T14:15:14;12.40;99.90
21033;DHT22;10675;47.976;7.824;2023-03-24T14:17:43;12.40;99.90
21033;DHT22;10675;47.976;7.824;2023-03-24T14:22:40;12.50;99.90
21033;DHT22;10675;47.976;7.824;2023-03-24T14:27:42;12.60;99.90
21033;DHT22;10675;47.976;7.824;2023-03-24T14:30:22;12.70;99.90
21033;DHT22;10675;47.976;7.824;2023-03-24T14:32:52;12.80;99.90
21033;DHT22;10675;47.976;7.824;2023-03-24T14:40:42;12.90;99.90
21033;DHT22;10675;47.976;7.824;2023-03-24T14:43:25;12.90;99.90
21033;DHT22;10675;47.976;7.824;2023-03-24T14:46:05;13.10;99.90
21033;DHT22;10675;47.976;7.824;2023-03-24T14:48:57;13.00;99.90
21033;DHT22;10675;47.976;7.824;2023-03-24T14:51:43;13.00;99.90
21033;DHT22;10675;47.976;7.824;2023-03-24T14:54:34;13.00;99.90
21033;DHT22;10675;47.976;7.824;2023-03-24T14:57:02;12.90;99.90
21033;DHT22;10675;47.976;7.824;2023-03-24T14:59:48;12.90;99.90
21033;DHT22;10675;47.976;7.824;2023-03-24T15:02:26;13.00;99.90
21033;DHT22;10675;47.976;7.824;2023-03-24T15:07:38;13.10;99.90
21033;DHT22;10675;47.976;7.824;2023-03-24T15:10:04;13.10;99.90
21033;DHT22;10675;47.976;7.824;2023-03-24T15:12:30;13.10;99.90
21033;DHT22;10675;47.976;7.824;2023-03-24T15:14:56;13.20;99.90
21033;DHT22;10675;47.976;7.824;2023-03-24T15:17:23;13.20;99.90
21033;DHT22;10675;47.976;7.824;2023-03-24T15:19:51;13.30;99.90
21033;DHT22;10675;47.976;7.824;2023-03-24T15:22:17;13.30;99.90
21033;DHT22;10675;47.976;7.824;2023-03-24T15:24:46;13.30;99.90
21033;DHT22;10675;47.976;7.824;2023-03-24T15:27:17;13.40;99.90
21033;DHT22;10675;47.976;7.824;2023-03-24T15:29:44;13.50;99.90
21033;DHT22;10675;47.976;7.824;2023-03-24T15:32:21;13.50;99.90
21033;DHT22;10675;47.976;7.824;2023-03-24T15:34:52;13.70;99.90
21033;DHT22;10675;47.976;7.824;2023-03-24T15:37:24;13.90;99.90
21033;DHT22;10675;47.976;7.824;2023-03-24T15:39:52;14.00;99.90
21033;DHT22;10675;47.976;7.824;2023-03-24T15:42:21;14.30;99.90
21033;DHT22;10675;47.976;7.824;2023-03-24T15:44:47;14.20;99.90
21033;DHT22;10675;47.976;7.824;2023-03-24T15:52:37;13.70;99.90
21033;DHT22;10675;47.976;7.824;2023-03-24T15:55:23;13.50;99.90
21033;DHT22;10675;47.976;7.824;2023-03-24T15:57:53;13.50;99.90
21033;DHT22;10675;47.976;7.824;2023-03-24T16:00:25;13.50;99.90
21033;DHT22;10675;47.976;7.824;2023-03-24T16:02:52;13.40;99.90
21033;DHT22;10675;47.976;7.824;2023-03-24T16:05:25;13.30;99.90
21033;DHT22;10675;47.976;7.824;2023-03-24T16:08:00;13.20;99.90
21033;DHT22;10675;47.976;7.824;2023-03-24T16:10:36;13.20;99.90
21033;DHT22;10675;47.976;7.824;2023-03-24T16:13:22;13.20;99.90
21033;DHT22;10675;47.976;7.824;2023-03-24T16:15:58;13.10;99.90
21033;DHT22;10675;47.976;7.824;2023-03-24T16:18:38;13.10;99.90
21033;DHT22;10675;47.976;7.824;2023-03-24T16:21:16;15.20;99.90
21033;DHT22;10675;47.976;7.824;2023-03-24T16:23:42;13.10;99.90
21033;DHT22;10675;47.976;7.824;2023-03-24T16:28:40;14.10;99.90
21033;DHT22;10675;47.976;7.824;2023-03-24T16:31:06;14.50;99.20
21033;DHT22;10675;47.976;7.824;2023-03-24T16:33:32;14.80;98.70
21033;DHT22;10675;47.976;7.824;2023-03-24T16:35:58;14.80;98.10
21033;DHT22;10675;47.976;7.824;2023-03-24T16:38:25;14.60;97.70
21033;DHT22;10675;47.976;7.824;2023-03-24T16:40:53;14.30;98.00
21033;DHT22;10675;47.976;7.824;2023-03-24T16:43:19;14.20;98.20
21033;DHT22;10675;47.976;7.824;2023-03-24T16:45:46;14.40;98.40
21033;DHT22;10675;47.976;7.824;2023-03-24T16:48:12;14.60;97.60
21033;DHT22;10675;47.976;7.824;2023-03-24T16:50:41;14.50;96.40
21033;DHT22;10675;47.976;7.824;2023-03-24T16:53:07;14.20;97.40
21033;DHT22;10675;47.976;7.824;2023-03-24T16:55:34;14.00;97.40
21033;DHT22;10675;47.976;7.824;2023-03-24T16:58:01;13.80;97.70
21033;DHT22;10675;47.976;7.824;2023-03-24T17:00:26;13.90;97.40
21033;DHT22;10675;47.976;7.824;2023-03-24T17:02:54;13.60;97.50
21033;DHT22;10675;47.976;7.824;2023-03-24T17:05:26;13.50;97.70
21033;DHT22;10675;47.976;7.824;2023-03-24T17:07:55;13.30;97.80
21033;DHT22;10675;47.976;7.824;2023-03-24T17:10:22;13.20;98.00
21033;DHT22;10675;47.976;7.824;2023-03-24T17:12:49;13.20;98.40
21033;DHT22;10675;47.976;7.824;2023-03-24T17:15:27;13.10;98.60
21033;DHT22;10675;47.976;7.824;2023-03-24T17:17:54;13.00;98.80
21033;DHT22;10675;47.976;7.824;2023-03-24T17:20:21;12.90;98.80
21033;DHT22;10675;47.976;7.824;2023-03-24T17:22:49;12.90;98.60
21033;DHT22;10675;47.976;7.824;2023-03-24T17:25:17;12.80;98.80
21033;DHT22;10675;47.976;7.824;2023-03-24T17:27:45;12.80;98.70
21033;DHT22;10675;47.976;7.824;2023-03-24T17:30:16;12.70;98.50
21033;DHT22;10675;47.976;7.824;2023-03-24T17:32:42;12.70;98.00
21033;DHT22;10675;47.976;7.824;2023-03-24T17:35:12;12.60;98.00
21033;DHT22;10675;47.976;7.824;2023-03-24T17:37:38;12.50;98.00
21033;DHT22;10675;47.976;7.824;2023-03-24T17:40:04;12.50;97.70
21033;DHT22;10675;47.976;7.824;2023-03-24T17:42:35;12.40;97.70
21033;DHT22;10675;47.976;7.824;2023-03-24T17:45:01;12.40;97.50
21033;DHT22;10675;47.976;7.824;2023-03-24T17:47:28;12.40;97.40
21033;DHT22;10675;47.976;7.824;2023-03-24T17:49:54;12.40;97.20
21033;DHT22;10675;47.976;7.824;2023-03-24T17:52:20;12.40;97.30